ETD755 OMAA-EHAM
Flight info
| Callsign | ETD755 |
|---|---|
| Flight time | N/A |
| Altitude | 34000 |
| Route | DAXIB Q563 UKUVO G462 TUMAK L602 TASMI/N0465F220 L602 ALPET/N0498F340 L718 DEBNI DCT SEVKU L718 KABAN UL718 ULSAB UG8 GEM UT32 BUK UL602 DEREL/N0489F360 UL602 MAKOL DCT EKNAB DCT GILEP DCT BEGLA DCT FMD DCT DITIS DCT LOMKI DCT VARIK DCT KATCE DCT EXOBA DCT NORKU |
| Aircraft | A35K/H-SDE2E3GHIJ3J4J5LM1ORWXY/LB1D1 |
Departure
| Time | 2026-05-06 07:37 |
|---|---|
| Airport | Zayed International Airport (OMAA) |
Arrival
| Time | N/A |
|---|---|
| Airport | Amsterdam Airport Schiphol (EHAM) |
| Time | Latitude | Longitude | Altitude | Speed | Heading |
|---|---|---|---|---|---|
| 2026-05-06 07:37 | 24.37721 | 54.94609 | 6245 ft | 321 kts | 350° |
| 2026-05-06 07:37 | 24.39923 | 54.94184 | 6568 ft | 322 kts | 350° |
| 2026-05-06 07:37 | 24.42134 | 54.93774 | 6909 ft | 322 kts | 350° |
| 2026-05-06 07:37 | 24.44353 | 54.93378 | 7280 ft | 322 kts | 351° |
| 2026-05-06 07:38 | 24.46573 | 54.92990 | 7645 ft | 323 kts | 351° |
| 2026-05-06 07:38 | 24.48776 | 54.92604 | 8003 ft | 324 kts | 351° |
| 2026-05-06 07:38 | 24.50958 | 54.91962 | 8297 ft | 329 kts | 341° |
| 2026-05-06 07:38 | 24.53142 | 54.91099 | 8458 ft | 338 kts | 340° |
| 2026-05-06 07:39 | 24.55375 | 54.90183 | 8612 ft | 347 kts | 340° |
| 2026-05-06 07:39 | 24.57666 | 54.89250 | 8775 ft | 355 kts | 340° |
| 2026-05-06 07:39 | 24.60018 | 54.88299 | 8917 ft | 363 kts | 340° |
| 2026-05-06 07:39 | 24.62417 | 54.87330 | 9047 ft | 371 kts | 340° |
| 2026-05-06 07:40 | 24.64872 | 54.86341 | 9197 ft | 379 kts | 341° |
| 2026-05-06 07:40 | 24.67373 | 54.85335 | 9319 ft | 386 kts | 341° |
| 2026-05-06 07:40 | 24.69919 | 54.84311 | 9545 ft | 390 kts | 342° |
| 2026-05-06 07:40 | 24.72446 | 54.83282 | 9832 ft | 393 kts | 339° |
| 2026-05-06 07:41 | 24.74809 | 54.81746 | 10030 ft | 399 kts | 319° |
| 2026-05-06 07:41 | 24.76542 | 54.79360 | 10287 ft | 403 kts | 298° |
| 2026-05-06 07:41 | 24.77583 | 54.76490 | 10524 ft | 408 kts | 289° |
| 2026-05-06 07:41 | 24.78475 | 54.73513 | 10738 ft | 411 kts | 290° |
| 2026-05-06 07:42 | 24.79411 | 54.70535 | 11119 ft | 410 kts | 290° |
| 2026-05-06 07:42 | 24.80360 | 54.67577 | 11441 ft | 411 kts | 288° |
| 2026-05-06 07:42 | 24.81086 | 54.64520 | 11739 ft | 412 kts | 283° |
| 2026-05-06 07:42 | 24.81710 | 54.61444 | 12064 ft | 413 kts | 283° |
| 2026-05-06 07:43 | 24.82333 | 54.58346 | 12312 ft | 415 kts | 283° |
| 2026-05-06 07:43 | 24.82966 | 54.55239 | 12583 ft | 416 kts | 283° |
| 2026-05-06 07:43 | 24.83604 | 54.52125 | 12848 ft | 418 kts | 283° |
| 2026-05-06 07:43 | 24.84247 | 54.49004 | 13135 ft | 419 kts | 283° |
| 2026-05-06 07:44 | 24.84882 | 54.45926 | 13453 ft | 419 kts | 283° |
| 2026-05-06 07:44 | 24.85527 | 54.42800 | 13709 ft | 420 kts | 283° |
| 2026-05-06 07:44 | 24.86176 | 54.39652 | 13927 ft | 422 kts | 283° |
| 2026-05-06 07:44 | 24.86825 | 54.36507 | 14153 ft | 423 kts | 283° |
| 2026-05-06 07:45 | 24.87478 | 54.33331 | 14380 ft | 424 kts | 283° |
| 2026-05-06 07:45 | 24.88134 | 54.30147 | 14611 ft | 426 kts | 283° |
| 2026-05-06 07:45 | 24.88790 | 54.26953 | 14831 ft | 427 kts | 283° |
| 2026-05-06 07:45 | 24.89446 | 54.23756 | 15060 ft | 429 kts | 283° |
| 2026-05-06 07:46 | 24.90102 | 54.20556 | 15305 ft | 430 kts | 283° |
| 2026-05-06 07:46 | 24.90825 | 54.17388 | 15524 ft | 431 kts | 289° |
| 2026-05-06 07:46 | 24.92064 | 54.14342 | 15701 ft | 431 kts | 302° |
| 2026-05-06 07:46 | 24.93780 | 54.11691 | 15962 ft | 430 kts | 308° |
| 2026-05-06 07:47 | 24.95692 | 54.09151 | 16196 ft | 431 kts | 311° |
| 2026-05-06 07:47 | 24.97699 | 54.06675 | 16402 ft | 433 kts | 313° |
| 2026-05-06 07:47 | 24.99739 | 54.04230 | 16630 ft | 434 kts | 313° |
| 2026-05-06 07:47 | 25.01792 | 54.01777 | 16830 ft | 436 kts | 312° |
| 2026-05-06 07:48 | 25.03852 | 53.99294 | 17021 ft | 438 kts | 312° |
| 2026-05-06 07:48 | 25.05903 | 53.96795 | 17181 ft | 441 kts | 312° |
| 2026-05-06 07:48 | 25.07962 | 53.94265 | 17387 ft | 443 kts | 311° |
| 2026-05-06 07:48 | 25.10012 | 53.91730 | 17603 ft | 445 kts | 311° |
| 2026-05-06 07:49 | 25.12077 | 53.89170 | 17764 ft | 447 kts | 311° |
| 2026-05-06 07:49 | 25.14142 | 53.86606 | 18003 ft | 447 kts | 311° |
| 2026-05-06 07:49 | 25.16208 | 53.84039 | 18209 ft | 449 kts | 310° |
| 2026-05-06 07:49 | 25.18261 | 53.81487 | 18391 ft | 450 kts | 310° |
| 2026-05-06 07:50 | 25.20407 | 53.78967 | 18576 ft | 451 kts | 316° |
| 2026-05-06 07:50 | 25.22718 | 53.76629 | 18784 ft | 451 kts | 317° |
| 2026-05-06 07:50 | 25.25085 | 53.74350 | 18989 ft | 451 kts | 318° |
| 2026-05-06 07:50 | 25.27489 | 53.72103 | 19198 ft | 452 kts | 319° |
| 2026-05-06 07:51 | 25.29905 | 53.69877 | 19379 ft | 453 kts | 319° |
| 2026-05-06 07:51 | 25.32331 | 53.67650 | 19572 ft | 454 kts | 319° |
| 2026-05-06 07:51 | 25.34763 | 53.65416 | 19752 ft | 454 kts | 318° |
| 2026-05-06 07:51 | 25.37193 | 53.63176 | 19951 ft | 455 kts | 319° |
| 2026-05-06 07:52 | 25.39619 | 53.60932 | 20117 ft | 455 kts | 318° |
| 2026-05-06 07:52 | 25.42052 | 53.58677 | 20330 ft | 456 kts | 318° |
| 2026-05-06 07:52 | 25.44483 | 53.56420 | 20488 ft | 457 kts | 318° |
| 2026-05-06 07:52 | 25.46893 | 53.54182 | 20682 ft | 458 kts | 318° |
| 2026-05-06 07:53 | 25.49333 | 53.51913 | 20867 ft | 459 kts | 318° |
| 2026-05-06 07:53 | 25.51791 | 53.49628 | 21036 ft | 460 kts | 318° |
| 2026-05-06 07:53 | 25.54239 | 53.47350 | 21219 ft | 462 kts | 318° |
| 2026-05-06 07:53 | 25.56705 | 53.45055 | 21399 ft | 462 kts | 318° |
| 2026-05-06 07:54 | 25.59174 | 53.42756 | 21612 ft | 463 kts | 318° |
| 2026-05-06 07:54 | 25.61648 | 53.40451 | 21782 ft | 464 kts | 318° |
| 2026-05-06 07:54 | 25.64103 | 53.38126 | 21972 ft | 465 kts | 317° |
| 2026-05-06 07:54 | 25.66537 | 53.35756 | 22152 ft | 466 kts | 316° |
| 2026-05-06 07:55 | 25.68960 | 53.33367 | 22345 ft | 467 kts | 316° |
| 2026-05-06 07:55 | 25.71362 | 53.30993 | 22527 ft | 467 kts | 316° |
| 2026-05-06 07:55 | 25.73793 | 53.28595 | 22712 ft | 468 kts | 316° |
| 2026-05-06 07:55 | 25.76237 | 53.26192 | 22886 ft | 469 kts | 316° |
| 2026-05-06 07:56 | 25.78683 | 53.23792 | 23087 ft | 470 kts | 316° |
| 2026-05-06 07:56 | 25.81126 | 53.21362 | 23255 ft | 471 kts | 314° |
| 2026-05-06 07:56 | 25.83324 | 53.18684 | 23438 ft | 470 kts | 306° |
| 2026-05-06 07:56 | 25.85116 | 53.15657 | 23569 ft | 469 kts | 297° |
| 2026-05-06 07:57 | 25.86627 | 53.12445 | 23723 ft | 469 kts | 294° |
| 2026-05-06 07:57 | 25.88023 | 53.09170 | 23879 ft | 469 kts | 292° |
| 2026-05-06 07:57 | 25.89361 | 53.05862 | 24047 ft | 470 kts | 292° |
| 2026-05-06 07:57 | 25.90677 | 53.02538 | 24197 ft | 470 kts | 291° |
| 2026-05-06 07:58 | 25.91992 | 52.99215 | 24366 ft | 470 kts | 291° |
| 2026-05-06 07:58 | 25.93315 | 52.95891 | 24510 ft | 471 kts | 292° |
| 2026-05-06 07:58 | 25.94633 | 52.92601 | 24662 ft | 471 kts | 292° |
| 2026-05-06 07:58 | 25.95974 | 52.89273 | 24811 ft | 472 kts | 292° |
| 2026-05-06 07:59 | 25.97324 | 52.85933 | 24954 ft | 472 kts | 292° |
| 2026-05-06 07:59 | 25.98671 | 52.82605 | 25111 ft | 473 kts | 292° |
| 2026-05-06 07:59 | 26.00020 | 52.79272 | 25252 ft | 473 kts | 292° |
| 2026-05-06 07:59 | 26.01371 | 52.75930 | 25397 ft | 474 kts | 292° |
| 2026-05-06 08:00 | 26.02738 | 52.72594 | 25589 ft | 473 kts | 292° |
| 2026-05-06 08:00 | 26.04180 | 52.69308 | 25810 ft | 472 kts | 294° |
| 2026-05-06 08:00 | 26.05667 | 52.66045 | 25963 ft | 473 kts | 294° |
| 2026-05-06 08:00 | 26.07171 | 52.62781 | 26071 ft | 474 kts | 294° |
| 2026-05-06 08:01 | 26.08673 | 52.59516 | 26208 ft | 475 kts | 294° |
| 2026-05-06 08:01 | 26.10176 | 52.56224 | 26334 ft | 476 kts | 294° |
| 2026-05-06 08:01 | 26.11665 | 52.52936 | 26467 ft | 476 kts | 294° |
| 2026-05-06 08:01 | 26.13156 | 52.49641 | 26605 ft | 477 kts | 294° |
| 2026-05-06 08:02 | 26.14645 | 52.46344 | 26711 ft | 478 kts | 293° |
| 2026-05-06 08:02 | 26.16132 | 52.43042 | 26843 ft | 478 kts | 293° |
| 2026-05-06 08:02 | 26.17623 | 52.39730 | 27004 ft | 478 kts | 293° |
| 2026-05-06 08:02 | 26.19110 | 52.36423 | 27170 ft | 478 kts | 293° |
| 2026-05-06 08:03 | 26.20581 | 52.33149 | 27298 ft | 478 kts | 293° |
| 2026-05-06 08:03 | 26.22070 | 52.29832 | 27413 ft | 479 kts | 293° |
| 2026-05-06 08:03 | 26.23545 | 52.26501 | 27527 ft | 480 kts | 292° |
| 2026-05-06 08:03 | 26.24993 | 52.23159 | 27654 ft | 480 kts | 292° |
| 2026-05-06 08:04 | 26.26441 | 52.19789 | 27755 ft | 481 kts | 292° |
| 2026-05-06 08:04 | 26.27880 | 52.16432 | 27866 ft | 481 kts | 292° |
| 2026-05-06 08:04 | 26.29330 | 52.13054 | 27984 ft | 482 kts | 292° |
| 2026-05-06 08:04 | 26.30779 | 52.09686 | 28100 ft | 482 kts | 292° |
| 2026-05-06 08:05 | 26.32230 | 52.06319 | 28312 ft | 480 kts | 291° |
| 2026-05-06 08:05 | 26.33685 | 52.02957 | 28489 ft | 480 kts | 291° |
| 2026-05-06 08:05 | 26.36583 | 51.96234 | 28646 ft | 481 kts | 290° |
| 2026-05-06 08:06 | 26.39069 | 51.89387 | 28786 ft | 480 kts | 287° |
| 2026-05-06 08:06 | 26.41433 | 51.82413 | 28955 ft | 480 kts | 287° |
| 2026-05-06 08:07 | 26.42602 | 51.78918 | 29078 ft | 479 kts | 286° |
| 2026-05-06 08:07 | 26.43762 | 51.75439 | 29175 ft | 479 kts | 286° |
| 2026-05-06 08:07 | 26.44923 | 51.71952 | 29346 ft | 477 kts | 286° |
| 2026-05-06 08:07 | 26.46077 | 51.68495 | 29578 ft | 475 kts | 286° |
| 2026-05-06 08:08 | 26.47232 | 51.65043 | 29722 ft | 473 kts | 286° |
| 2026-05-06 08:08 | 26.48382 | 51.61595 | 29853 ft | 473 kts | 286° |
| 2026-05-06 08:08 | 26.50665 | 51.54721 | 29968 ft | 474 kts | 286° |
| 2026-05-06 08:09 | 26.52960 | 51.47796 | 30028 ft | 475 kts | 286° |
| 2026-05-06 08:09 | 26.55251 | 51.40887 | 30219 ft | 473 kts | 285° |
| 2026-05-06 08:10 | 26.57518 | 51.34040 | 30431 ft | 470 kts | 285° |
| 2026-05-06 08:10 | 26.58653 | 51.30610 | 30549 ft | 470 kts | 285° |
| 2026-05-06 08:10 | 26.59782 | 51.27193 | 30573 ft | 470 kts | 285° |
| 2026-05-06 08:11 | 26.62049 | 51.20340 | 30670 ft | 470 kts | 285° |
| 2026-05-06 08:11 | 26.64312 | 51.13496 | 30809 ft | 469 kts | 285° |
| 2026-05-06 08:12 | 26.66574 | 51.06641 | 30914 ft | 469 kts | 285° |
| 2026-05-06 08:12 | 26.68829 | 50.99793 | 31048 ft | 468 kts | 285° |
| 2026-05-06 08:13 | 26.69936 | 50.96387 | 31207 ft | 465 kts | 284° |
| 2026-05-06 08:13 | 26.71024 | 50.92986 | 31288 ft | 464 kts | 284° |
| 2026-05-06 08:13 | 26.73186 | 50.86175 | 31351 ft | 464 kts | 284° |
| 2026-05-06 08:14 | 26.75341 | 50.79392 | 31381 ft | 465 kts | 284° |
| 2026-05-06 08:14 | 26.77515 | 50.72561 | 31478 ft | 465 kts | 284° |
| 2026-05-06 08:15 | 26.79482 | 50.66955 | 31528 ft | 469 kts | 290° |
| 2026-05-06 08:15 | 26.83077 | 50.60795 | 31800 ft | 473 kts | 300° |
| 2026-05-06 08:16 | 26.87188 | 50.55026 | 31894 ft | 475 kts | 302° |
| 2026-05-06 08:16 | 26.91398 | 50.49297 | 31915 ft | 476 kts | 302° |
| 2026-05-06 08:17 | 26.95811 | 50.43726 | 31951 ft | 480 kts | 306° |
| 2026-05-06 08:17 | 27.00441 | 50.38395 | 32170 ft | 477 kts | 306° |
| 2026-05-06 08:18 | 27.05052 | 50.33043 | 32189 ft | 477 kts | 306° |
| 2026-05-06 08:18 | 27.09607 | 50.27610 | 32229 ft | 476 kts | 304° |
| 2026-05-06 08:19 | 27.14107 | 50.22158 | 32293 ft | 477 kts | 306° |
| 2026-05-06 08:19 | 27.19180 | 50.17242 | 32299 ft | 487 kts | 313° |
| 2026-05-06 08:20 | 27.24593 | 50.12686 | 32316 ft | 489 kts | 315° |
| 2026-05-06 08:20 | 27.30084 | 50.08182 | 32364 ft | 489 kts | 315° |
| 2026-05-06 08:21 | 27.35579 | 50.03667 | 32382 ft | 489 kts | 315° |
| 2026-05-06 08:21 | 27.40992 | 49.99056 | 32412 ft | 487 kts | 313° |
| 2026-05-06 08:22 | 27.46307 | 49.94325 | 32378 ft | 488 kts | 313° |
| 2026-05-06 08:22 | 27.51635 | 49.89583 | 32451 ft | 487 kts | 312° |
| 2026-05-06 08:23 | 27.56959 | 49.84876 | 32517 ft | 486 kts | 313° |
| 2026-05-06 08:23 | 27.62291 | 49.80168 | 32528 ft | 487 kts | 313° |
| 2026-05-06 08:24 | 27.67593 | 49.75485 | 32559 ft | 486 kts | 312° |
| 2026-05-06 08:24 | 27.72921 | 49.70771 | 32604 ft | 486 kts | 312° |
| 2026-05-06 08:25 | 27.78247 | 49.66053 | 32615 ft | 486 kts | 312° |
| 2026-05-06 08:25 | 27.83564 | 49.61323 | 32636 ft | 486 kts | 312° |
| 2026-05-06 08:26 | 27.88872 | 49.56576 | 32755 ft | 484 kts | 311° |
| 2026-05-06 08:26 | 27.94118 | 49.51876 | 32757 ft | 484 kts | 311° |
| 2026-05-06 08:27 | 27.99414 | 49.47126 | 32673 ft | 486 kts | 311° |
| 2026-05-06 08:27 | 28.04714 | 49.42375 | 32827 ft | 483 kts | 311° |
| 2026-05-06 08:28 | 28.09951 | 49.37604 | 32833 ft | 483 kts | 311° |
| 2026-05-06 08:28 | 28.15177 | 49.32812 | 32831 ft | 483 kts | 311° |
| 2026-05-06 08:29 | 28.20418 | 49.28012 | 32875 ft | 483 kts | 310° |
| 2026-05-06 08:29 | 28.25602 | 49.23266 | 32904 ft | 482 kts | 310° |
| 2026-05-06 08:30 | 28.30825 | 49.18481 | 32904 ft | 482 kts | 310° |
| 2026-05-06 08:30 | 28.36039 | 49.13697 | 32931 ft | 482 kts | 310° |
| 2026-05-06 08:31 | 28.41402 | 49.09089 | 32993 ft | 486 kts | 314° |
| 2026-05-06 08:31 | 28.47006 | 49.04727 | 32947 ft | 488 kts | 315° |
| 2026-05-06 08:32 | 28.52645 | 49.00413 | 32962 ft | 489 kts | 315° |
| 2026-05-06 08:32 | 28.58280 | 48.96105 | 33022 ft | 487 kts | 315° |
| 2026-05-06 08:33 | 28.63907 | 48.91784 | 33025 ft | 487 kts | 315° |
| 2026-05-06 08:33 | 28.69488 | 48.87486 | 33021 ft | 487 kts | 315° |
| 2026-05-06 08:34 | 28.77906 | 48.80995 | 33109 ft | 486 kts | 315° |
| 2026-05-06 08:35 | 28.83508 | 48.76678 | 33091 ft | 486 kts | 315° |
| 2026-05-06 08:35 | 28.89124 | 48.72378 | 33133 ft | 486 kts | 315° |
| 2026-05-06 08:36 | 28.94700 | 48.68109 | 33174 ft | 485 kts | 315° |
| 2026-05-06 08:36 | 29.00304 | 48.63806 | 33129 ft | 486 kts | 315° |
| 2026-05-06 08:37 | 29.05924 | 48.59480 | 33073 ft | 487 kts | 315° |
| 2026-05-06 08:37 | 29.11545 | 48.55152 | 33077 ft | 486 kts | 315° |
| 2026-05-06 08:38 | 29.17164 | 48.50820 | 33074 ft | 486 kts | 315° |
| 2026-05-06 08:38 | 29.22774 | 48.46487 | 33111 ft | 486 kts | 315° |
| 2026-05-06 08:39 | 29.28352 | 48.42176 | 33131 ft | 486 kts | 315° |
| 2026-05-06 08:39 | 29.33964 | 48.37828 | 33086 ft | 487 kts | 315° |
| 2026-05-06 08:40 | 29.39570 | 48.33482 | 33112 ft | 486 kts | 315° |
| 2026-05-06 08:40 | 29.45182 | 48.29152 | 33136 ft | 488 kts | 316° |
| 2026-05-06 08:41 | 29.51081 | 48.25191 | 33121 ft | 493 kts | 320° |
| 2026-05-06 08:41 | 29.57105 | 48.21379 | 33137 ft | 494 kts | 320° |
| 2026-05-06 08:42 | 29.63097 | 48.17519 | 33109 ft | 493 kts | 319° |
| 2026-05-06 08:42 | 29.69050 | 48.13612 | 33132 ft | 493 kts | 319° |
| 2026-05-06 08:43 | 29.74991 | 48.09681 | 33148 ft | 493 kts | 319° |
| 2026-05-06 08:43 | 29.80912 | 48.05757 | 33160 ft | 493 kts | 319° |
| 2026-05-06 08:43 | 29.83873 | 48.03798 | 33387 ft | 488 kts | 319° |
| 2026-05-06 08:44 | 29.86797 | 48.01867 | 33650 ft | 482 kts | 319° |
| 2026-05-06 08:44 | 29.89692 | 47.99952 | 33896 ft | 477 kts | 318° |
| 2026-05-06 08:44 | 29.92567 | 47.98041 | 33925 ft | 477 kts | 318° |
| 2026-05-06 08:45 | 29.98307 | 47.94209 | 33930 ft | 477 kts | 317° |
| 2026-05-06 08:45 | 30.01048 | 47.92109 | 33924 ft | 466 kts | 310° |
| 2026-05-06 08:45 | 30.03457 | 47.89680 | 33932 ft | 455 kts | 303° |
| 2026-05-06 08:46 | 30.07716 | 47.84326 | 33936 ft | 451 kts | 300° |
| 2026-05-06 08:46 | 30.11814 | 47.78833 | 33936 ft | 451 kts | 300° |
| 2026-05-06 08:47 | 30.15890 | 47.73326 | 33931 ft | 452 kts | 300° |
| 2026-05-06 08:47 | 30.19961 | 47.67857 | 33950 ft | 453 kts | 300° |
| 2026-05-06 08:48 | 30.24081 | 47.62336 | 33941 ft | 454 kts | 300° |
| 2026-05-06 08:48 | 30.28217 | 47.56792 | 33941 ft | 455 kts | 300° |
| 2026-05-06 08:49 | 30.32351 | 47.51243 | 33938 ft | 455 kts | 300° |
| 2026-05-06 08:49 | 30.36489 | 47.45676 | 33939 ft | 456 kts | 300° |
| 2026-05-06 08:50 | 30.40631 | 47.40097 | 33958 ft | 457 kts | 300° |
| 2026-05-06 08:50 | 30.44783 | 47.34498 | 33956 ft | 458 kts | 300° |
| 2026-05-06 08:51 | 30.48942 | 47.28880 | 33952 ft | 459 kts | 300° |
| 2026-05-06 08:51 | 30.53100 | 47.23258 | 33951 ft | 460 kts | 300° |
| 2026-05-06 08:52 | 30.57275 | 47.17594 | 33967 ft | 465 kts | 300° |
| 2026-05-06 08:52 | 30.61481 | 47.11870 | 33964 ft | 472 kts | 300° |
| 2026-05-06 08:52 | 30.63617 | 47.08973 | 34201 ft | 469 kts | 300° |
| 2026-05-06 08:53 | 30.65730 | 47.06116 | 34538 ft | 464 kts | 300° |
| 2026-05-06 08:53 | 30.67826 | 47.03277 | 34891 ft | 459 kts | 300° |
| 2026-05-06 08:53 | 30.69892 | 47.00474 | 35244 ft | 454 kts | 300° |
| 2026-05-06 08:53 | 30.71931 | 46.97703 | 35598 ft | 449 kts | 299° |
| 2026-05-06 08:54 | 30.73945 | 46.94958 | 35913 ft | 445 kts | 299° |
| 2026-05-06 08:54 | 30.77975 | 46.89437 | 35964 ft | 450 kts | 299° |
| 2026-05-06 08:55 | 30.82049 | 46.83846 | 35965 ft | 456 kts | 299° |
| 2026-05-06 08:55 | 30.86164 | 46.78208 | 35978 ft | 462 kts | 299° |
| 2026-05-06 08:56 | 30.90347 | 46.72480 | 35974 ft | 467 kts | 299° |
| 2026-05-06 08:56 | 30.94568 | 46.66698 | 35974 ft | 469 kts | 299° |
| 2026-05-06 08:57 | 30.98806 | 46.60885 | 35971 ft | 471 kts | 299° |
| 2026-05-06 08:57 | 31.03048 | 46.55054 | 35976 ft | 472 kts | 299° |
| 2026-05-06 08:58 | 31.07290 | 46.49212 | 35977 ft | 472 kts | 299° |
| 2026-05-06 08:58 | 31.11528 | 46.43365 | 35979 ft | 472 kts | 299° |
| 2026-05-06 08:59 | 31.15760 | 46.37517 | 35982 ft | 471 kts | 299° |
| 2026-05-06 08:59 | 31.19289 | 46.32668 | 35977 ft | 474 kts | 301° |
| 2026-05-06 09:00 | 31.24152 | 46.27310 | 35985 ft | 483 kts | 307° |
| 2026-05-06 09:00 | 31.29243 | 46.22153 | 35999 ft | 485 kts | 308° |
| 2026-05-06 09:01 | 31.34380 | 46.17024 | 36000 ft | 485 kts | 308° |
| 2026-05-06 09:01 | 31.39470 | 46.11925 | 36020 ft | 485 kts | 308° |
| 2026-05-06 09:02 | 31.44588 | 46.06772 | 36019 ft | 484 kts | 308° |
| 2026-05-06 09:02 | 31.49697 | 46.01612 | 36007 ft | 484 kts | 308° |
| 2026-05-06 09:03 | 31.54791 | 45.96458 | 36021 ft | 484 kts | 307° |
| 2026-05-06 09:03 | 31.59898 | 45.91282 | 36012 ft | 485 kts | 307° |
| 2026-05-06 09:04 | 31.65007 | 45.86100 | 36016 ft | 485 kts | 307° |
| 2026-05-06 09:04 | 31.70113 | 45.80913 | 36017 ft | 485 kts | 307° |
| 2026-05-06 09:05 | 31.75192 | 45.75746 | 36010 ft | 485 kts | 307° |
| 2026-05-06 09:05 | 31.80289 | 45.70552 | 36016 ft | 486 kts | 307° |
| 2026-05-06 09:06 | 31.85399 | 45.65337 | 36015 ft | 486 kts | 307° |
| 2026-05-06 09:06 | 31.90504 | 45.60120 | 36009 ft | 486 kts | 307° |
| 2026-05-06 09:07 | 31.95600 | 45.54904 | 36014 ft | 486 kts | 307° |
| 2026-05-06 09:07 | 32.00701 | 45.49674 | 36015 ft | 486 kts | 307° |
| 2026-05-06 09:08 | 32.05798 | 45.44440 | 36012 ft | 486 kts | 307° |
| 2026-05-06 09:08 | 32.10895 | 45.39198 | 36021 ft | 486 kts | 307° |
| 2026-05-06 09:09 | 32.15989 | 45.33951 | 36015 ft | 486 kts | 307° |
| 2026-05-06 09:09 | 32.21090 | 45.28688 | 36015 ft | 486 kts | 307° |
| 2026-05-06 09:10 | 32.26144 | 45.23467 | 36015 ft | 486 kts | 307° |
| 2026-05-06 09:10 | 32.31232 | 45.18204 | 36018 ft | 486 kts | 307° |
| 2026-05-06 09:11 | 32.36313 | 45.12936 | 36033 ft | 486 kts | 307° |
| 2026-05-06 09:11 | 32.41394 | 45.07663 | 36025 ft | 485 kts | 307° |
| 2026-05-06 09:12 | 32.46471 | 45.02385 | 36015 ft | 485 kts | 307° |
| 2026-05-06 09:12 | 32.51543 | 44.97103 | 36022 ft | 485 kts | 308° |
| 2026-05-06 09:13 | 32.56584 | 44.91847 | 36024 ft | 485 kts | 308° |
| 2026-05-06 09:13 | 32.61645 | 44.86562 | 36027 ft | 485 kts | 307° |
| 2026-05-06 09:14 | 32.66714 | 44.81258 | 36026 ft | 485 kts | 307° |
| 2026-05-06 09:14 | 32.71777 | 44.75953 | 36022 ft | 485 kts | 307° |
| 2026-05-06 09:15 | 32.76807 | 44.70675 | 36025 ft | 485 kts | 307° |
| 2026-05-06 09:15 | 32.81866 | 44.65357 | 36026 ft | 485 kts | 307° |
| 2026-05-06 09:16 | 32.86929 | 44.60026 | 36037 ft | 485 kts | 308° |
| 2026-05-06 09:16 | 32.91951 | 44.54731 | 36030 ft | 485 kts | 308° |
| 2026-05-06 09:17 | 32.96998 | 44.49400 | 36036 ft | 485 kts | 307° |
| 2026-05-06 09:17 | 33.02045 | 44.44061 | 36035 ft | 485 kts | 307° |
| 2026-05-06 09:18 | 33.07096 | 44.38711 | 36042 ft | 485 kts | 308° |
| 2026-05-06 09:18 | 33.12150 | 44.33348 | 36044 ft | 485 kts | 308° |
| 2026-05-06 09:19 | 33.17744 | 44.28618 | 36068 ft | 506 kts | 322° |
| 2026-05-06 09:19 | 33.20989 | 44.26992 | 36055 ft | 519 kts | 330° |
| 2026-05-06 09:19 | 33.24444 | 44.25670 | 36051 ft | 522 kts | 333° |
| 2026-05-06 09:20 | 33.31479 | 44.23322 | 36048 ft | 525 kts | 334° |
| 2026-05-06 09:20 | 33.38542 | 44.21073 | 36046 ft | 525 kts | 334° |
| 2026-05-06 09:21 | 33.45554 | 44.18802 | 36053 ft | 525 kts | 334° |
| 2026-05-06 09:21 | 33.52591 | 44.16482 | 36049 ft | 525 kts | 334° |
| 2026-05-06 09:22 | 33.59630 | 44.14146 | 36046 ft | 525 kts | 334° |
| 2026-05-06 09:22 | 33.66672 | 44.11806 | 36047 ft | 525 kts | 334° |
| 2026-05-06 09:23 | 33.73714 | 44.09463 | 36043 ft | 525 kts | 334° |
| 2026-05-06 09:23 | 33.80748 | 44.07119 | 36041 ft | 525 kts | 334° |
| 2026-05-06 09:24 | 33.87790 | 44.04769 | 36047 ft | 525 kts | 334° |
| 2026-05-06 09:24 | 33.94839 | 44.02411 | 36061 ft | 525 kts | 334° |
| 2026-05-06 09:25 | 34.01886 | 44.00051 | 36046 ft | 525 kts | 334° |
| 2026-05-06 09:25 | 34.08928 | 43.97690 | 36059 ft | 526 kts | 334° |
| 2026-05-06 09:26 | 34.15986 | 43.95318 | 36049 ft | 526 kts | 334° |
| 2026-05-06 09:26 | 34.23034 | 43.92946 | 36048 ft | 526 kts | 334° |
| 2026-05-06 09:27 | 34.30041 | 43.90583 | 36084 ft | 526 kts | 333° |
| 2026-05-06 09:27 | 34.37084 | 43.88203 | 36050 ft | 526 kts | 333° |
| 2026-05-06 09:28 | 34.44145 | 43.85813 | 36051 ft | 526 kts | 333° |
| 2026-05-06 09:28 | 34.51193 | 43.83424 | 36050 ft | 526 kts | 333° |
| 2026-05-06 09:29 | 34.58243 | 43.81030 | 36055 ft | 526 kts | 334° |
| 2026-05-06 09:29 | 34.65290 | 43.78633 | 36056 ft | 526 kts | 334° |
| 2026-05-06 09:30 | 34.72345 | 43.76229 | 36056 ft | 526 kts | 334° |
| 2026-05-06 09:30 | 34.79395 | 43.73821 | 36059 ft | 526 kts | 334° |
| 2026-05-06 09:31 | 34.86395 | 43.71427 | 36056 ft | 526 kts | 334° |
| 2026-05-06 09:31 | 34.93454 | 43.69009 | 36054 ft | 526 kts | 334° |
| 2026-05-06 09:32 | 35.00505 | 43.66588 | 36062 ft | 525 kts | 334° |
| 2026-05-06 09:32 | 35.07526 | 43.64176 | 36060 ft | 524 kts | 334° |
| 2026-05-06 09:33 | 35.14547 | 43.61757 | 36061 ft | 524 kts | 334° |
| 2026-05-06 09:33 | 35.21517 | 43.59353 | 36053 ft | 524 kts | 334° |
| 2026-05-06 09:34 | 35.28538 | 43.56926 | 36050 ft | 524 kts | 334° |
| 2026-05-06 09:34 | 35.35557 | 43.54494 | 36063 ft | 524 kts | 334° |
| 2026-05-06 09:35 | 35.42564 | 43.52063 | 36062 ft | 524 kts | 334° |
| 2026-05-06 09:35 | 35.49581 | 43.49624 | 36062 ft | 524 kts | 334° |
| 2026-05-06 09:36 | 35.56610 | 43.47177 | 36060 ft | 524 kts | 334° |
| 2026-05-06 09:36 | 35.63573 | 43.44747 | 36073 ft | 524 kts | 334° |
| 2026-05-06 09:37 | 35.70590 | 43.42294 | 36070 ft | 524 kts | 334° |
| 2026-05-06 09:37 | 35.77619 | 43.39834 | 36060 ft | 524 kts | 334° |
| 2026-05-06 09:38 | 35.84605 | 43.37384 | 36060 ft | 524 kts | 334° |
| 2026-05-06 09:38 | 35.91616 | 43.34920 | 36059 ft | 524 kts | 334° |
| 2026-05-06 09:39 | 35.98625 | 43.32453 | 36059 ft | 524 kts | 334° |
| 2026-05-06 09:39 | 36.05639 | 43.29979 | 36066 ft | 524 kts | 334° |
| 2026-05-06 09:40 | 36.12444 | 43.26982 | 36067 ft | 515 kts | 327° |
| 2026-05-06 09:40 | 36.22263 | 43.21672 | 36058 ft | 513 kts | 326° |
| 2026-05-06 09:41 | 36.28786 | 43.18051 | 36057 ft | 513 kts | 326° |
| 2026-05-06 09:41 | 36.35308 | 43.14435 | 36054 ft | 513 kts | 326° |
| 2026-05-06 09:42 | 36.41793 | 43.10846 | 36056 ft | 513 kts | 326° |
| 2026-05-06 09:42 | 36.48326 | 43.07228 | 36056 ft | 513 kts | 326° |
| 2026-05-06 09:43 | 36.54862 | 43.03603 | 36058 ft | 513 kts | 326° |
| 2026-05-06 09:43 | 36.61381 | 42.99979 | 36060 ft | 513 kts | 326° |
| 2026-05-06 09:44 | 36.67902 | 42.96347 | 36057 ft | 513 kts | 326° |
| 2026-05-06 09:44 | 36.74415 | 42.92712 | 36066 ft | 513 kts | 326° |
| 2026-05-06 09:45 | 36.79832 | 42.89692 | 36061 ft | 513 kts | 326° |
| 2026-05-06 09:45 | 36.87430 | 42.85506 | 36060 ft | 513 kts | 326° |
| 2026-05-06 09:46 | 36.93954 | 42.81913 | 36062 ft | 513 kts | 326° |
| 2026-05-06 09:46 | 36.99384 | 42.78913 | 36061 ft | 513 kts | 326° |
| 2026-05-06 09:47 | 37.05908 | 42.75298 | 36068 ft | 513 kts | 327° |
| 2026-05-06 09:47 | 37.12432 | 42.71675 | 36073 ft | 512 kts | 326° |
| 2026-05-06 09:48 | 37.18957 | 42.68041 | 36070 ft | 512 kts | 326° |
| 2026-05-06 09:48 | 37.22064 | 42.65971 | 36071 ft | 501 kts | 318° |
| 2026-05-06 09:48 | 37.24860 | 42.63437 | 36066 ft | 489 kts | 310° |
| 2026-05-06 09:49 | 37.27230 | 42.60517 | 36067 ft | 478 kts | 302° |
| 2026-05-06 09:49 | 37.29348 | 42.57309 | 36065 ft | 476 kts | 300° |
| 2026-05-06 09:49 | 37.33359 | 42.50705 | 36082 ft | 476 kts | 298° |
| 2026-05-06 09:50 | 37.37300 | 42.44010 | 36069 ft | 476 kts | 298° |
| 2026-05-06 09:50 | 37.41257 | 42.37322 | 36069 ft | 477 kts | 298° |
| 2026-05-06 09:51 | 37.45238 | 42.30630 | 36076 ft | 477 kts | 298° |
| 2026-05-06 09:51 | 37.49212 | 42.23958 | 36071 ft | 476 kts | 298° |
| 2026-05-06 09:52 | 37.53180 | 42.17282 | 36071 ft | 476 kts | 298° |
| 2026-05-06 09:52 | 37.57126 | 42.10626 | 36075 ft | 476 kts | 299° |
| 2026-05-06 09:53 | 37.61085 | 42.03932 | 36072 ft | 477 kts | 298° |
| 2026-05-06 09:53 | 37.65077 | 41.97171 | 36067 ft | 477 kts | 298° |
| 2026-05-06 09:54 | 37.69013 | 41.90491 | 36068 ft | 477 kts | 299° |
| 2026-05-06 09:54 | 37.72976 | 41.83756 | 36064 ft | 477 kts | 299° |
| 2026-05-06 09:55 | 37.76937 | 41.77003 | 36063 ft | 477 kts | 299° |
| 2026-05-06 09:55 | 37.80898 | 41.70245 | 36066 ft | 478 kts | 299° |
| 2026-05-06 09:56 | 37.84848 | 41.63490 | 36066 ft | 478 kts | 299° |
| 2026-05-06 09:56 | 37.88772 | 41.56764 | 36074 ft | 478 kts | 299° |
| 2026-05-06 09:57 | 37.92715 | 41.49992 | 36068 ft | 479 kts | 299° |
| 2026-05-06 09:57 | 37.96669 | 41.43192 | 36069 ft | 479 kts | 299° |